Time;durP1;ratioP1;P1;durP2;ratioP2;P2;SDS_P1;SDS_P2;PMS_P1;PMS_P2;Temp;Humidity;BMP_temperature;BMP_pressure;BME280_temperature;BME280_humidity;BME280_pressure;Samples;Min_cycle;Max_cycle;Signal;HPM_P1;HPM_P2
2023/07/19 00:01:47;;;;;;;2.90;2.27;;;23.50;72.80;;;;;;4929144;28;20230;-71
2023/07/19 00:04:13;;;;;;;2.70;2.50;;;23.50;72.70;;;;;;4912697;28;20235;-71
2023/07/19 00:06:38;;;;;;;4.20;2.90;;;23.50;72.90;;;;;;4928682;28;20234;-71
2023/07/19 00:09:04;;;;;;;4.23;2.67;;;23.40;73.10;;;;;;4926650;28;20228;-71
2023/07/19 00:11:30;;;;;;;2.70;2.50;;;23.40;73.30;;;;;;4928826;28;20351;-71
2023/07/19 00:13:56;;;;;;;5.20;2.53;;;23.40;73.60;;;;;;4911073;28;20227;-72
2023/07/19 00:16:22;;;;;;;2.73;2.53;;;23.30;73.50;;;;;;4925705;28;20219;-71
2023/07/19 00:18:48;;;;;;;3.13;2.83;;;23.30;73.70;;;;;;4927711;28;21008;-71
2023/07/19 00:21:13;;;;;;;4.70;2.77;;;23.30;73.40;;;;;;4910928;28;20309;-73
2023/07/19 00:23:39;;;;;;;4.47;2.30;;;23.30;73.40;;;;;;4927793;28;20222;-72
2023/07/19 00:26:05;;;;;;;3.10;2.50;;;23.20;73.40;;;;;;4927305;28;20717;-70
2023/07/19 00:28:30;;;;;;;4.30;2.87;;;23.20;73.60;;;;;;4913082;28;20227;-71
2023/07/19 00:31:03;;;;;;;3.03;2.40;;;23.20;73.50;;;;;;4911919;28;20227;-72
2023/07/19 00:33:29;;;;;;;6.00;2.50;;;23.30;73.70;;;;;;4911736;28;20234;-72
2023/07/19 00:35:55;;;;;;;2.90;2.63;;;23.20;73.80;;;;;;4930475;28;20459;-71
2023/07/19 00:38:22;;;;;;;6.13;2.50;;;23.10;73.80;;;;;;4930113;28;20466;-72
2023/07/19 00:40:50;;;;;;;3.90;2.40;;;23.10;73.80;;;;;;4910785;28;20467;-71
2023/07/19 00:43:16;;;;;;;2.70;2.33;;;23.10;74.10;;;;;;4912953;28;20250;-70
2023/07/19 00:45:54;;;;;;;3.20;2.90;;;23.10;74.10;;;;;;4929603;28;20463;-71
2023/07/19 00:48:21;;;;;;;2.87;2.57;;;23.10;74.20;;;;;;4912466;28;20622;-71
2023/07/19 00:50:52;;;;;;;5.10;2.90;;;23.10;74.00;;;;;;4910661;28;21027;-70
2023/07/19 00:53:18;;;;;;;3.07;2.77;;;23.10;74.00;;;;;;4929782;28;20570;-70
2023/07/19 00:55:49;;;;;;;6.07;3.17;;;23.10;74.20;;;;;;4913930;28;21134;-72
2023/07/19 00:58:17;;;;;;;5.80;2.70;;;23.00;74.30;;;;;;4929829;28;20486;-72
2023/07/19 01:00:45;;;;;;;3.57;2.60;;;22.90;74.80;;;;;;4913030;28;20919;-72
2023/07/19 01:03:11;;;;;;;3.50;2.67;;;22.80;75.00;;;;;;4928305;28;20471;-71
2023/07/19 01:05:38;;;;;;;4.67;2.23;;;22.90;75.00;;;;;;4913902;28;20473;-71
2023/07/19 01:08:05;;;;;;;5.63;3.00;;;22.80;74.60;;;;;;4913771;28;20321;-71
2023/07/19 01:10:31;;;;;;;4.30;3.00;;;22.80;75.00;;;;;;4898174;28;20537;-72
2023/07/19 01:13:08;;;;;;;3.27;2.60;;;22.80;75.10;;;;;;4914158;28;20623;-70
2023/07/19 01:15:35;;;;;;;4.00;2.47;;;22.90;75.00;;;;;;4912990;28;20465;-71
2023/07/19 01:18:02;;;;;;;2.60;2.40;;;22.80;74.70;;;;;;4913670;28;20491;-72
2023/07/19 01:20:28;;;;;;;3.13;2.80;;;22.80;74.60;;;;;;4930050;28;20588;-71
2023/07/19 01:22:57;;;;;;;2.60;2.40;;;22.80;74.70;;;;;;4912958;28;20681;-71
2023/07/19 01:25:23;;;;;;;2.80;2.50;;;22.90;74.60;;;;;;4912799;28;20223;-71
2023/07/19 01:27:50;;;;;;;4.43;2.60;;;22.80;74.50;;;;;;4913706;28;20476;-71
2023/07/19 01:30:16;;;;;;;3.40;2.07;;;22.80;74.40;;;;;;4911720;28;20494;-71
2023/07/19 01:32:44;;;;;;;3.10;2.80;;;22.70;74.60;;;;;;4903803;28;21115;-72
2023/07/19 01:35:10;;;;;;;3.20;2.83;;;22.60;74.70;;;;;;4928202;28;20474;-70
2023/07/19 01:37:36;;;;;;;2.70;2.50;;;22.40;74.80;;;;;;4928034;28;20482;-72
2023/07/19 01:40:04;;;;;;;3.00;2.70;;;22.40;75.10;;;;;;4926807;28;20475;-71
2023/07/19 01:42:31;;;;;;;3.93;2.80;;;22.30;75.30;;;;;;4913023;28;21229;-72
2023/07/19 01:45:01;;;;;;;3.30;2.97;;;22.20;75.80;;;;;;4896325;28;20956;-71
2023/07/19 01:47:27;;;;;;;3.37;2.80;;;22.20;76.20;;;;;;4932440;28;20463;-71
2023/07/19 01:49:52;;;;;;;5.77;2.20;;;22.10;76.40;;;;;;4931637;28;20462;-71
2023/07/19 01:52:18;;;;;;;3.23;3.03;;;22.10;76.90;;;;;;4931647;28;20573;-71
2023/07/19 01:54:44;;;;;;;5.00;2.70;;;22.10;77.20;;;;;;4922354;28;20223;-71
2023/07/19 01:57:11;;;;;;;5.30;3.10;;;21.90;78.20;;;;;;4931603;28;20254;-72
2023/07/19 01:59:37;;;;;;;4.80;3.00;;;21.70;78.90;;;;;;4916541;28;20877;-70
2023/07/19 02:02:04;;;;;;;5.50;2.97;;;21.40;80.20;;;;;;4931738;28;20467;-70
2023/07/19 02:04:30;;;;;;;4.70;2.77;;;21.50;79.70;;;;;;4915043;28;20474;-70
2023/07/19 02:06:56;;;;;;;5.87;3.60;;;21.60;79.30;;;;;;4916630;28;20479;-71
2023/07/19 02:09:22;;;;;;;3.23;2.40;;;21.60;78.90;;;;;;4914816;28;20985;-71
2023/07/19 02:11:48;;;;;;;4.53;2.80;;;21.70;79.00;;;;;;4930935;28;20235;-71
2023/07/19 02:14:14;;;;;;;7.30;3.00;;;21.90;78.10;;;;;;4930535;28;20463;-70
2023/07/19 02:16:39;;;;;;;9.00;2.90;;;22.00;77.80;;;;;;4916933;28;20235;-70
2023/07/19 02:19:07;;;;;;;3.07;2.63;;;21.90;77.60;;;;;;4921781;28;20219;-71
2023/07/19 02:21:33;;;;;;;3.17;2.73;;;22.00;77.80;;;;;;4932258;28;20565;-72
2023/07/19 02:23:59;;;;;;;2.97;2.67;;;22.00;77.40;;;;;;4930474;28;20350;-70
2023/07/19 02:26:25;;;;;;;2.77;2.40;;;22.10;77.20;;;;;;4915424;28;20565;-71
2023/07/19 02:28:51;;;;;;;4.80;2.70;;;22.10;77.30;;;;;;4931938;28;20800;-71
2023/07/19 02:31:17;;;;;;;3.77;3.40;;;22.00;77.00;;;;;;4915451;28;20488;-71
2023/07/19 02:33:42;;;;;;;3.40;2.70;;;22.00;77.40;;;;;;4916198;28;20463;-71
2023/07/19 02:36:11;;;;;;;4.10;3.30;;;21.90;77.40;;;;;;4914559;28;20756;-71
2023/07/19 02:38:39;;;;;;;3.17;2.73;;;21.90;77.50;;;;;;4916057;28;20298;-71
2023/07/19 02:41:07;;;;;;;2.50;2.30;;;21.90;77.50;;;;;;4915694;28;20604;-70
2023/07/19 02:43:34;;;;;;;3.03;2.80;;;21.90;77.70;;;;;;4900544;28;20230;-71
2023/07/19 02:46:00;;;;;;;4.57;3.30;;;21.90;78.00;;;;;;4929993;28;20545;-71
2023/07/19 02:48:25;;;;;;;4.00;3.20;;;21.80;78.00;;;;;;4916156;28;20226;-71
2023/07/19 02:50:51;;;;;;;3.50;2.60;;;21.70;78.30;;;;;;4929446;28;20302;-70
2023/07/19 02:53:17;;;;;;;4.73;2.40;;;21.70;78.40;;;;;;4914424;28;20950;-70
2023/07/19 02:55:44;;;;;;;4.17;2.50;;;21.70;78.60;;;;;;4916106;28;20301;-71
2023/07/19 02:58:09;;;;;;;3.23;2.73;;;21.50;79.00;;;;;;4931329;28;20356;-69
2023/07/19 03:00:43;;;;;;;2.40;2.20;;;21.30;79.20;;;;;;4915849;28;21826;-71
2023/07/19 03:03:10;;;;;;;3.17;2.63;;;20.80;81.20;;;;;;4930285;28;20220;-70
2023/07/19 03:05:44;;;;;;;5.80;3.23;;;20.60;81.90;;;;;;4915502;28;20542;-70
2023/07/19 03:08:11;;;;;;;5.10;3.57;;;20.80;82.10;;;;;;4915240;28;20528;-70
2023/07/19 03:10:37;;;;;;;3.70;2.70;;;20.90;81.90;;;;;;4914271;28;20563;-71
2023/07/19 03:13:03;;;;;;;3.67;2.43;;;20.90;81.90;;;;;;4914792;28;20489;-70
2023/07/19 03:15:33;;;;;;;4.40;2.80;;;20.60;82.60;;;;;;4931413;28;20522;-70
2023/07/19 03:18:05;;;;;;;3.23;2.93;;;20.40;83.30;;;;;;4915168;28;20779;-70
2023/07/19 03:20:31;;;;;;;4.33;3.17;;;20.30;83.70;;;;;;4914515;28;21209;-70
2023/07/19 03:22:58;;;;;;;4.20;2.50;;;20.60;83.20;;;;;;4914870;28;20549;-70
2023/07/19 03:25:24;;;;;;;6.20;2.80;;;20.80;82.50;;;;;;4898688;28;20482;-69
2023/07/19 03:27:50;;;;;;;5.10;2.90;;;20.90;82.20;;;;;;4918969;28;20506;-70
2023/07/19 03:30:16;;;;;;;3.57;2.93;;;20.90;82.10;;;;;;4928253;28;20479;-71
2023/07/19 03:32:42;;;;;;;3.50;2.97;;;20.90;82.00;;;;;;4897506;28;20486;-70
2023/07/19 03:35:08;;;;;;;3.00;2.73;;;21.00;81.80;;;;;;4901068;28;20849;-71
2023/07/19 03:37:36;;;;;;;4.50;3.03;;;21.00;82.10;;;;;;4930440;28;20243;-71
2023/07/19 03:40:04;;;;;;;3.80;2.77;;;21.00;81.60;;;;;;4929502;28;20610;-70
2023/07/19 03:42:31;;;;;;;3.43;2.50;;;21.00;81.80;;;;;;4931094;28;20460;-70
2023/07/19 03:44:57;;;;;;;3.90;2.67;;;20.90;82.30;;;;;;4930967;28;20529;-72
2023/07/19 03:47:24;;;;;;;5.03;3.07;;;20.90;82.30;;;;;;4930647;28;20238;-71
2023/07/19 03:49:50;;;;;;;3.73;2.80;;;20.90;82.60;;;;;;4928941;28;20379;-72
2023/07/19 03:52:16;;;;;;;4.23;2.90;;;20.90;82.20;;;;;;4929302;28;20490;-72
2023/07/19 03:54:41;;;;;;;3.23;2.70;;;20.90;82.10;;;;;;4913457;28;20231;-72
2023/07/19 03:57:07;;;;;;;2.77;2.57;;;20.90;82.30;;;;;;4927748;28;20224;-71
2023/07/19 03:59:33;;;;;;;5.00;3.47;;;20.90;82.50;;;;;;4928769;28;20222;-72
2023/07/19 04:01:58;;;;;;;4.40;2.77;;;20.80;82.70;;;;;;4913611;28;20242;-72
2023/07/19 04:04:24;;;;;;;4.80;3.03;;;20.70;82.90;;;;;;4913266;28;20266;-72
2023/07/19 04:06:50;;;;;;;3.30;2.83;;;20.70;82.90;;;;;;4928764;28;20471;-71
2023/07/19 04:09:17;;;;;;;3.07;2.60;;;20.60;83.30;;;;;;4913777;28;20314;-72
2023/07/19 04:11:43;;;;;;;2.73;2.50;;;20.60;82.90;;;;;;4912134;28;20231;-72
2023/07/19 04:14:08;;;;;;;2.97;2.63;;;20.70;82.90;;;;;;4913477;28;20463;-72
2023/07/19 04:16:34;;;;;;;4.80;2.93;;;20.70;82.60;;;;;;4930105;28;20223;-71
2023/07/19 04:18:59;;;;;;;3.60;2.90;;;20.70;82.60;;;;;;4917557;28;20231;-71
2023/07/19 04:21:26;;;;;;;2.60;2.40;;;20.70;82.70;;;;;;4929627;28;20231;-73
2023/07/19 04:23:52;;;;;;;3.37;2.73;;;20.70;82.50;;;;;;4929067;28;20553;-71
2023/07/19 04:26:18;;;;;;;2.70;2.47;;;20.70;83.10;;;;;;4897713;28;21027;-70
2023/07/19 04:28:43;;;;;;;3.50;2.90;;;20.70;83.10;;;;;;4928612;28;20859;-70
2023/07/19 04:31:10;;;;;;;3.03;2.73;;;20.50;83.50;;;;;;4912841;28;20223;-72
2023/07/19 04:33:36;;;;;;;3.20;2.70;;;20.50;83.80;;;;;;4914887;28;20666;-70
2023/07/19 04:36:11;;;;;;;4.47;3.30;;;20.60;84.00;;;;;;4914286;28;20792;-71
2023/07/19 04:38:37;;;;;;;2.87;2.67;;;20.20;85.30;;;;;;4914801;28;20499;-71
2023/07/19 04:41:03;;;;;;;3.60;2.90;;;20.20;85.80;;;;;;4928610;28;20485;-72
2023/07/19 04:43:31;;;;;;;5.40;3.13;;;20.30;85.70;;;;;;4930731;28;20335;-72
2023/07/19 04:45:59;;;;;;;3.53;2.70;;;20.20;86.40;;;;;;4912981;28;20483;-71
2023/07/19 04:48:24;;;;;;;3.73;2.90;;;20.30;86.00;;;;;;4929150;28;20499;-71
2023/07/19 04:50:54;;;;;;;4.37;3.00;;;20.30;86.00;;;;;;4927916;28;20247;-71
2023/07/19 04:53:21;;;;;;;3.70;2.77;;;20.40;85.90;;;;;;4896482;28;20236;-70
2023/07/19 04:55:51;;;;;;;3.23;2.80;;;20.30;86.50;;;;;;4913106;28;20481;-71
2023/07/19 04:58:17;;;;;;;2.70;2.50;;;20.40;86.80;;;;;;4927863;28;20484;-71
2023/07/19 05:00:43;;;;;;;5.83;3.00;;;20.30;87.10;;;;;;4911793;28;20596;-71
2023/07/19 05:03:08;;;;;;;2.93;2.63;;;20.10;87.70;;;;;;4901200;28;20851;-70
2023/07/19 05:05:34;;;;;;;6.63;3.10;;;20.00;88.30;;;;;;4911417;28;20348;-71
2023/07/19 05:08:00;;;;;;;4.23;3.07;;;20.10;88.50;;;;;;4914779;28;20333;-72
2023/07/19 05:10:26;;;;;;;3.53;2.57;;;20.30;87.80;;;;;;4926016;28;20234;-72
2023/07/19 05:12:52;;;;;;;3.23;2.93;;;20.30;87.60;;;;;;4910742;28;20239;-70
2023/07/19 05:15:17;;;;;;;5.30;2.83;;;20.40;87.80;;;;;;4908712;28;20232;-70
2023/07/19 05:17:43;;;;;;;2.73;2.47;;;20.50;86.70;;;;;;4910917;28;20228;-70
2023/07/19 05:20:09;;;;;;;2.73;2.53;;;20.60;85.80;;;;;;4910913;28;20823;-73
2023/07/19 05:22:35;;;;;;;4.67;2.90;;;20.70;87.10;;;;;;4914656;28;20216;-70
2023/07/19 05:25:03;;;;;;;6.70;3.10;;;20.70;86.70;;;;;;4912485;28;20314;-70
2023/07/19 05:27:29;;;;;;;5.00;2.80;;;20.70;87.00;;;;;;4932206;28;20569;-71
2023/07/19 05:29:54;;;;;;;4.83;4.23;;;20.80;86.60;;;;;;4925218;28;21088;-71
2023/07/19 05:32:20;;;;;;;3.57;3.07;;;20.80;86.60;;;;;;4891787;28;20265;-71
2023/07/19 05:34:46;;;;;;;3.33;3.13;;;20.70;87.00;;;;;;4906371;28;20223;-71
2023/07/19 05:37:12;;;;;;;3.00;2.73;;;20.70;86.40;;;;;;4890584;28;21047;-71
2023/07/19 05:39:38;;;;;;;3.33;2.93;;;20.80;87.00;;;;;;4903072;28;20265;-71
2023/07/19 05:42:05;;;;;;;3.00;2.80;;;20.90;86.80;;;;;;4902008;28;20341;-71
2023/07/19 05:44:30;;;;;;;3.40;3.00;;;20.90;86.50;;;;;;4890706;28;20230;-71
2023/07/19 05:46:56;;;;;;;4.17;3.23;;;21.00;85.90;;;;;;4902748;28;20793;-71
2023/07/19 05:49:22;;;;;;;3.83;3.47;;;21.10;86.20;;;;;;4883389;28;20351;-72
2023/07/19 05:51:48;;;;;;;4.60;3.30;;;21.10;86.40;;;;;;4890966;28;20298;-72
2023/07/19 05:54:14;;;;;;;5.73;3.20;;;21.10;86.90;;;;;;4889151;28;20266;-72
2023/07/19 05:56:40;;;;;;;5.53;3.17;;;21.10;87.40;;;;;;4870285;28;20382;-72
2023/07/19 05:59:05;;;;;;;2.80;2.60;;;21.00;88.10;;;;;;4886969;28;20559;-71
2023/07/19 06:01:31;;;;;;;5.43;3.47;;;20.90;87.70;;;;;;4904524;28;20317;-73
2023/07/19 06:03:56;;;;;;;4.60;3.47;;;21.00;87.30;;;;;;4885047;28;20394;-72
2023/07/19 06:06:22;;;;;;;3.20;2.27;;;21.10;87.00;;;;;;4902719;28;20258;-73
2023/07/19 06:08:48;;;;;;;4.30;2.90;;;21.20;87.80;;;;;;4892375;28;20231;-71
2023/07/19 06:11:14;;;;;;;7.43;3.00;;;21.10;87.20;;;;;;4888034;28;21065;-72
2023/07/19 06:13:40;;;;;;;4.33;3.10;;;21.10;87.60;;;;;;4885646;28;20905;-73
2023/07/19 06:16:05;;;;;;;3.23;2.83;;;20.90;88.20;;;;;;4904280;28;20606;-71
2023/07/19 06:18:31;;;;;;;4.70;2.67;;;20.90;89.10;;;;;;4889192;28;20818;-71
2023/07/19 06:20:57;;;;;;;3.50;2.70;;;20.80;90.00;;;;;;4886399;28;20223;-72
2023/07/19 06:23:22;;;;;;;5.83;3.10;;;20.80;90.10;;;;;;4885429;28;20263;-71
2023/07/19 06:25:49;;;;;;;3.63;3.00;;;20.90;90.00;;;;;;4911255;28;20238;-70
2023/07/19 06:28:15;;;;;;;4.27;2.77;;;20.90;90.10;;;;;;4931330;28;20232;-71
2023/07/19 06:30:41;;;;;;;4.67;2.67;;;21.00;89.80;;;;;;4913004;28;20561;-72
2023/07/19 06:33:07;;;;;;;6.50;2.97;;;21.00;90.20;;;;;;4884858;28;20652;-71
2023/07/19 06:35:33;;;;;;;3.43;2.70;;;20.90;90.50;;;;;;4887981;28;20483;-71
2023/07/19 06:37:59;;;;;;;4.60;3.27;;;21.00;90.50;;;;;;4885342;28;20231;-71
2023/07/19 06:40:26;;;;;;;6.60;3.23;;;21.10;90.10;;;;;;4902114;28;20959;-72
2023/07/19 06:42:52;;;;;;;3.00;2.60;;;21.30;90.20;;;;;;4889250;28;20511;-70
2023/07/19 06:45:18;;;;;;;2.93;2.63;;;21.30;90.50;;;;;;4903788;28;20463;-72
2023/07/19 06:47:44;;;;;;;3.37;3.00;;;21.30;90.40;;;;;;4901373;28;21025;-70
2023/07/19 06:50:10;;;;;;;3.80;3.00;;;21.30;90.50;;;;;;4902398;28;20487;-70
2023/07/19 06:52:36;;;;;;;4.37;3.60;;;21.40;90.60;;;;;;4890262;28;20374;-70
2023/07/19 06:55:03;;;;;;;5.17;3.60;;;21.40;90.50;;;;;;4884913;28;20233;-71
2023/07/19 06:57:29;;;;;;;3.40;3.10;;;21.50;90.70;;;;;;4902021;28;21098;-70
2023/07/19 06:59:55;;;;;;;3.23;2.93;;;21.50;90.80;;;;;;4889291;28;20493;-69
2023/07/19 07:02:20;;;;;;;5.70;3.30;;;21.60;90.50;;;;;;4887460;28;21301;-70
2023/07/19 07:04:47;;;;;;;3.43;2.87;;;21.80;90.20;;;;;;4883750;28;20376;-69
2023/07/19 07:07:15;;;;;;;5.07;3.53;;;21.90;90.30;;;;;;4888381;28;20234;-70
2023/07/19 07:09:43;;;;;;;3.17;2.70;;;21.90;90.50;;;;;;4905371;28;21127;-70
2023/07/19 07:12:12;;;;;;;4.83;3.10;;;22.00;90.70;;;;;;4893405;28;20607;-71
2023/07/19 07:14:39;;;;;;;3.07;2.77;;;22.00;90.30;;;;;;4902461;28;20538;-71
2023/07/19 07:17:08;;;;;;;4.53;3.07;;;22.20;90.10;;;;;;4904245;28;21226;-70
2023/07/19 07:19:33;;;;;;;3.50;3.20;;;22.30;90.10;;;;;;4886824;28;20574;-70
2023/07/19 07:21:59;;;;;;;3.57;2.90;;;22.30;90.20;;;;;;4899652;28;20475;-71
2023/07/19 07:24:25;;;;;;;3.77;3.00;;;22.50;90.20;;;;;;4885791;28;20231;-70
2023/07/19 07:26:51;;;;;;;4.40;2.70;;;22.60;90.00;;;;;;4889556;28;20227;-70
2023/07/19 07:29:16;;;;;;;2.97;2.67;;;22.70;90.00;;;;;;4882494;28;20231;-71
2023/07/19 07:31:42;;;;;;;3.10;2.90;;;22.80;90.00;;;;;;4884405;28;20314;-70
2023/07/19 07:34:08;;;;;;;3.13;2.80;;;22.90;90.00;;;;;;4888454;28;20414;-71
2023/07/19 07:36:34;;;;;;;5.00;2.80;;;23.00;90.40;;;;;;4900604;28;20223;-70
2023/07/19 07:39:00;;;;;;;3.20;2.90;;;23.10;90.20;;;;;;4899260;28;20617;-70
2023/07/19 07:41:26;;;;;;;3.80;3.40;;;23.20;89.40;;;;;;4900457;28;21206;-70
2023/07/19 07:43:52;;;;;;;4.20;3.30;;;23.20;89.50;;;;;;4902460;28;20234;-70
2023/07/19 07:46:17;;;;;;;3.40;2.80;;;23.30;89.50;;;;;;4899542;28;20238;-70
2023/07/19 07:48:43;;;;;;;3.77;2.93;;;23.40;89.30;;;;;;4893591;28;20914;-70
2023/07/19 07:51:10;;;;;;;7.80;3.80;;;23.50;88.40;;;;;;4886111;28;20646;-70
2023/07/19 07:53:35;;;;;;;3.27;2.90;;;23.50;88.30;;;;;;4900877;28;20725;-70
2023/07/19 07:56:02;;;;;;;3.17;2.80;;;23.70;88.80;;;;;;4900032;28;20681;-70
2023/07/19 07:58:28;;;;;;;5.90;3.37;;;23.80;88.70;;;;;;4886657;28;20375;-70
2023/07/19 08:00:54;;;;;;;3.47;2.90;;;24.00;88.80;;;;;;4902886;28;21202;-70
2023/07/19 08:03:19;;;;;;;5.80;3.53;;;24.30;88.70;;;;;;4883803;28;20227;-70
2023/07/19 08:05:45;;;;;;;4.27;2.70;;;24.40;88.20;;;;;;4887452;28;20625;-71
2023/07/19 08:08:11;;;;;;;2.97;2.67;;;24.30;88.20;;;;;;4903563;28;21030;-71
2023/07/19 08:10:38;;;;;;;8.60;3.10;;;24.40;88.60;;;;;;4886069;28;20930;-70
2023/07/19 08:13:04;;;;;;;3.63;2.77;;;24.50;87.80;;;;;;4901353;28;20232;-71
2023/07/19 08:15:30;;;;;;;3.43;2.90;;;24.60;86.50;;;;;;4901242;28;20495;-71
2023/07/19 08:17:56;;;;;;;3.30;2.53;;;24.80;86.20;;;;;;4888184;28;20471;-70
2023/07/19 08:20:21;;;;;;;2.90;2.70;;;24.90;86.30;;;;;;4885074;28;20230;-70
2023/07/19 08:22:47;;;;;;;3.20;2.63;;;25.00;85.90;;;;;;4884735;28;20219;-71
2023/07/19 08:25:16;;;;;;;3.73;3.03;;;25.10;86.20;;;;;;4900842;28;20239;-70
2023/07/19 08:27:43;;;;;;;3.70;3.00;;;25.20;85.70;;;;;;4904244;28;20838;-71
2023/07/19 08:30:15;;;;;;;4.17;2.73;;;25.30;85.50;;;;;;4883830;28;21251;-71
2023/07/19 08:32:42;;;;;;;4.80;3.10;;;25.40;83.30;;;;;;4901310;28;20594;-70
2023/07/19 08:35:08;;;;;;;5.90;3.07;;;25.60;83.20;;;;;;4872561;28;20485;-70
2023/07/19 08:37:34;;;;;;;2.83;2.40;;;25.80;81.50;;;;;;4885184;28;20475;-70
2023/07/19 08:39:59;;;;;;;2.60;2.40;;;25.80;81.70;;;;;;4898629;28;20497;-71
2023/07/19 08:42:25;;;;;;;3.97;3.50;;;26.00;83.30;;;;;;4886963;28;20231;-70
2023/07/19 08:44:51;;;;;;;4.17;2.87;;;26.20;80.80;;;;;;4902736;28;20238;-71
2023/07/19 08:47:17;;;;;;;5.20;3.20;;;26.20;79.80;;;;;;4894895;28;20266;-71
2023/07/19 08:49:43;;;;;;;4.63;2.30;;;26.20;80.20;;;;;;4883884;28;20241;-71
2023/07/19 08:52:08;;;;;;;2.30;2.10;;;26.30;81.50;;;;;;4886163;28;20473;-71
2023/07/19 08:54:34;;;;;;;2.50;2.30;;;26.40;81.40;;;;;;4900115;28;20309;-71
2023/07/19 08:57:03;;;;;;;2.33;2.13;;;26.60;78.80;;;;;;4883495;28;20329;-70
2023/07/19 08:59:28;;;;;;;3.57;2.63;;;26.80;79.20;;;;;;4885369;28;20241;-72
2023/07/19 09:01:54;;;;;;;4.77;2.67;;;26.80;79.40;;;;;;4887300;28;21087;-71
2023/07/19 09:04:20;;;;;;;2.83;2.63;;;27.00;79.60;;;;;;4900129;28;20223;-71
2023/07/19 09:06:48;;;;;;;4.73;2.90;;;27.10;78.30;;;;;;4899216;28;20249;-72
2023/07/19 09:09:16;;;;;;;3.40;2.70;;;27.10;77.70;;;;;;4887481;28;20219;-70
2023/07/19 09:11:45;;;;;;;5.00;3.20;;;27.30;77.80;;;;;;4885242;28;20241;-71
2023/07/19 09:14:11;;;;;;;2.57;2.37;;;27.50;77.00;;;;;;4899128;28;20745;-72
2023/07/19 09:16:39;;;;;;;4.53;2.60;;;27.50;76.90;;;;;;4884261;28;20326;-71
2023/07/19 09:19:04;;;;;;;2.70;2.50;;;27.70;73.10;;;;;;4904123;28;20292;-72
2023/07/19 09:21:31;;;;;;;2.50;2.30;;;27.70;74.00;;;;;;4885947;28;20903;-72
2023/07/19 09:23:58;;;;;;;4.00;2.67;;;27.70;74.50;;;;;;4885283;28;20318;-71
2023/07/19 09:26:24;;;;;;;2.83;2.50;;;27.60;74.20;;;;;;4885841;28;20234;-70
2023/07/19 09:28:51;;;;;;;5.00;2.70;;;27.60;72.50;;;;;;4900001;28;20358;-71
2023/07/19 09:31:17;;;;;;;3.13;2.10;;;27.60;71.70;;;;;;4884937;28;20269;-71
2023/07/19 09:33:42;;;;;;;4.07;2.33;;;27.50;70.90;;;;;;4900348;28;20235;-71
2023/07/19 09:36:08;;;;;;;4.38;2.60;;;27.50;70.50;;;;;;4886217;28;20227;-71
2023/07/19 09:38:34;;;;;;;3.30;2.80;;;27.50;70.70;;;;;;4884185;28;20231;-71
2023/07/19 09:41:00;;;;;;;2.40;2.20;;;27.40;69.00;;;;;;4898741;28;20235;-71
2023/07/19 09:43:27;;;;;;;2.45;2.13;;;27.40;68.70;;;;;;4886976;28;20250;-71
2023/07/19 09:45:54;;;;;;;2.65;2.45;;;27.30;68.70;;;;;;4886165;28;20636;-68
2023/07/19 09:48:23;;;;;;;2.93;2.57;;;27.30;69.20;;;;;;4884475;28;20227;-71
2023/07/19 09:50:49;;;;;;;2.23;2.03;;;27.20;69.00;;;;;;4883596;28;20231;-70
2023/07/19 09:53:15;;;;;;;3.38;2.10;;;27.20;68.50;;;;;;4903033;28;20231;-71
2023/07/19 09:55:45;;;;;;;2.22;2.03;;;27.20;68.70;;;;;;4900768;28;20233;-70
2023/07/19 09:58:13;;;;;;;3.87;2.50;;;27.20;69.00;;;;;;4898911;28;20238;-71
2023/07/19 10:00:39;;;;;;;3.30;2.50;;;27.20;68.30;;;;;;4900695;28;20222;-71
2023/07/19 10:03:08;;;;;;;3.43;2.30;;;27.20;68.10;;;;;;4902663;28;20526;-70
2023/07/19 10:05:35;;;;;;;2.90;2.57;;;27.20;69.60;;;;;;4899203;28;20475;-72
2023/07/19 10:08:05;;;;;;;2.67;2.47;;;27.30;68.80;;;;;;4886977;28;20249;-70
2023/07/19 10:10:38;;;;;;;2.90;2.60;;;27.30;68.90;;;;;;4906968;28;20226;-72
2023/07/19 10:13:03;;;;;;;2.93;2.30;;;27.40;70.20;;;;;;4903188;28;20235;-72
2023/07/19 10:15:29;;;;;;;6.47;2.50;;;27.50;70.20;;;;;;4887356;28;20715;-71
2023/07/19 10:17:58;;;;;;;4.65;2.47;;;27.50;68.80;;;;;;4903131;28;20258;-70
2023/07/19 10:20:35;;;;;;;3.15;2.47;;;27.60;69.40;;;;;;4887849;28;20310;-72
2023/07/19 10:23:05;;;;;;;3.13;2.67;;;27.60;68.60;;;;;;4885974;28;20231;-70
2023/07/19 10:25:35;;;;;;;3.10;2.80;;;27.50;68.20;;;;;;4903586;28;20238;-70
2023/07/19 10:28:09;;;;;;;2.90;2.57;;;27.50;68.90;;;;;;4892221;28;20227;-70
2023/07/19 10:30:46;;;;;;;2.50;2.30;;;27.40;68.70;;;;;;4889138;28;20270;-71
2023/07/19 10:33:17;;;;;;;2.75;2.53;;;27.40;69.30;;;;;;4900727;28;20771;-71
2023/07/19 10:35:43;;;;;;;3.40;2.85;;;27.30;68.80;;;;;;4890693;28;20231;-70
2023/07/19 10:38:18;;;;;;;3.30;2.50;;;27.30;69.20;;;;;;4882826;28;20927;-70
2023/07/19 10:40:53;;;;;;;5.55;2.83;;;27.30;69.50;;;;;;4895598;28;20497;-71
2023/07/19 10:43:19;;;;;;;2.43;2.23;;;27.40;69.70;;;;;;4891316;28;20374;-71
2023/07/19 10:45:45;;;;;;;2.57;2.37;;;27.40;70.30;;;;;;4919214;28;20219;-72
2023/07/19 10:48:11;;;;;;;2.67;2.47;;;27.50;69.70;;;;;;4928970;28;20353;-72
2023/07/19 10:50:38;;;;;;;4.93;2.70;;;27.40;69.80;;;;;;4907996;28;20753;-71
2023/07/19 10:53:04;;;;;;;4.10;2.50;;;27.50;70.90;;;;;;4888574;28;20989;-71
2023/07/19 10:55:30;;;;;;;2.92;2.53;;;27.50;70.80;;;;;;4884765;28;20285;-71
2023/07/19 10:57:56;;;;;;;3.45;2.67;;;27.60;70.80;;;;;;4885638;28;20235;-71
2023/07/19 11:00:21;;;;;;;2.47;2.13;;;27.60;70.50;;;;;;4899585;28;20322;-71
2023/07/19 11:02:48;;;;;;;2.78;2.58;;;27.50;70.60;;;;;;4880229;28;20231;-72
2023/07/19 11:05:15;;;;;;;2.95;2.42;;;27.60;70.60;;;;;;4885285;28;20223;-71
2023/07/19 11:07:41;;;;;;;4.30;2.38;;;27.60;70.10;;;;;;4901546;28;20219;-71
2023/07/19 11:10:08;;;;;;;3.35;3.05;;;27.60;69.90;;;;;;4901832;28;20218;-71
2023/07/19 11:12:33;;;;;;;3.50;2.77;;;27.70;70.40;;;;;;4885887;28;20273;-71
2023/07/19 11:15:01;;;;;;;6.40;2.60;;;27.70;70.40;;;;;;4884092;28;20493;-71
2023/07/19 11:17:29;;;;;;;3.08;2.50;;;27.70;70.50;;;;;;4884072;28;20290;-72
2023/07/19 11:19:57;;;;;;;4.63;2.83;;;27.80;70.50;;;;;;4886895;28;21057;-72
2023/07/19 11:22:24;;;;;;;2.70;2.50;;;27.80;70.60;;;;;;4883976;28;20706;-69
2023/07/19 11:24:52;;;;;;;3.58;2.65;;;27.90;70.50;;;;;;4899547;28;20224;-72
2023/07/19 11:27:19;;;;;;;2.80;2.35;;;28.00;71.00;;;;;;4901512;28;20308;-72
2023/07/19 11:29:50;;;;;;;4.85;2.70;;;28.10;71.60;;;;;;4894711;28;20227;-71
2023/07/19 11:32:23;;;;;;;2.42;1.95;;;28.30;70.40;;;;;;4884495;28;20227;-70
2023/07/19 11:34:54;;;;;;;3.65;2.67;;;28.60;70.20;;;;;;4901921;28;20970;-72
2023/07/19 11:37:28;;;;;;;3.13;2.45;;;28.60;69.70;;;;;;4888951;28;20231;-71
2023/07/19 11:39:58;;;;;;;2.78;2.58;;;28.30;70.00;;;;;;4900262;28;20223;-71
2023/07/19 11:42:52;;;;;;;2.88;2.58;;;28.40;70.30;;;;;;4885042;28;20674;-72
2023/07/19 11:45:24;;;;;;;3.50;2.45;;;28.60;69.50;;;;;;4901890;28;20224;-72
2023/07/19 11:47:55;;;;;;;7.38;2.40;;;28.80;70.20;;;;;;4900949;28;20290;-71
2023/07/19 11:50:22;;;;;;;2.90;2.60;;;29.00;70.20;;;;;;4898117;28;20341;-72
2023/07/19 11:52:51;;;;;;;2.97;2.55;;;29.00;69.70;;;;;;4883385;28;20238;-71
2023/07/19 11:55:19;;;;;;;3.50;2.20;;;29.00;69.00;;;;;;4902816;28;20219;-72
2023/07/19 11:57:49;;;;;;;3.03;2.55;;;29.00;68.40;;;;;;4885788;28;20228;-71
2023/07/19 12:00:16;;;;;;;2.85;2.42;;;28.90;68.70;;;;;;4897554;28;20918;-71
2023/07/19 12:02:44;;;;;;;2.72;2.53;;;29.00;67.80;;;;;;4886832;28;20929;-71
2023/07/19 12:05:11;;;;;;;2.45;2.25;;;28.90;68.50;;;;;;4900767;28;21063;-70
2023/07/19 12:07:37;;;;;;;3.58;2.55;;;29.00;68.20;;;;;;4865630;28;21000;-71
2023/07/19 12:10:04;;;;;;;5.00;2.40;;;28.90;68.70;;;;;;4898129;28;20227;-73
2023/07/19 12:12:31;;;;;;;3.05;2.65;;;28.90;68.30;;;;;;4902812;28;20274;-72
2023/07/19 12:15:00;;;;;;;4.53;2.35;;;28.90;68.20;;;;;;4884283;28;20223;-72
2023/07/19 12:17:26;;;;;;;2.63;2.22;;;28.90;68.30;;;;;;4881833;28;20234;-72
2023/07/19 12:19:53;;;;;;;3.42;2.90;;;29.00;68.60;;;;;;4901642;28;20227;-72
2023/07/19 12:22:20;;;;;;;3.40;2.78;;;29.00;67.80;;;;;;4883630;28;20223;-73
2023/07/19 12:24:46;;;;;;;3.45;2.20;;;29.10;68.70;;;;;;4897540;28;20732;-72
2023/07/19 12:27:12;;;;;;;6.05;2.58;;;29.10;68.40;;;;;;4881125;28;20949;-71
2023/07/19 12:29:37;;;;;;;3.00;2.72;;;29.20;67.70;;;;;;4877345;28;20227;-71
2023/07/19 12:32:04;;;;;;;3.60;2.53;;;29.40;67.10;;;;;;4881370;28;20230;-72
2023/07/19 12:34:30;;;;;;;3.55;2.70;;;29.50;67.30;;;;;;4924489;28;20653;-71
2023/07/19 12:36:55;;;;;;;2.65;2.45;;;29.40;67.20;;;;;;4890301;28;20230;-70
2023/07/19 12:39:24;;;;;;;3.30;3.00;;;29.40;66.50;;;;;;4885789;28;20273;-71
2023/07/19 12:41:52;;;;;;;5.68;2.60;;;29.20;66.90;;;;;;4901100;28;20223;-71
2023/07/19 12:44:20;;;;;;;3.90;2.95;;;29.00;67.40;;;;;;4882947;28;20754;-72
2023/07/19 12:46:48;;;;;;;2.70;2.35;;;28.70;68.70;;;;;;4887916;28;20223;-70